Time;durP1;ratioP1;P1;durP2;ratioP2;P2;SDS_P1;SDS_P2;PMS_P1;PMS_P2;Temp;Humidity;BMP_temperature;BMP_pressure;BME280_temperature;BME280_humidity;BME280_pressure;Samples;Min_cycle;Max_cycle;Signal;HPM_P1;HPM_P2
2023/09/29 00:00:17;;;;;;;9.63;3.42;;;;;;;23.13;51.25;100932.50;5032782;28;20021;-57
2023/09/29 00:02:45;;;;;;;10.27;4.35;;;;;;;23.14;51.70;100932.22;5032707;28;20049;-57
2023/09/29 00:05:14;;;;;;;14.07;3.95;;;;;;;22.93;51.29;100933.50;5034525;28;20078;-57
2023/09/29 00:07:40;;;;;;;14.30;4.40;;;;;;;22.88;49.91;100934.38;5036318;28;20036;-57
2023/09/29 00:10:16;;;;;;;13.00;4.32;;;;;;;22.71;50.49;100933.94;5018629;28;20025;-44
2023/09/29 00:12:43;;;;;;;10.25;3.90;;;;;;;22.74;50.21;100921.63;5036039;28;20080;-45
2023/09/29 00:15:11;;;;;;;10.93;3.88;;;;;;;22.57;50.53;100922.03;5036211;28;20417;-47
2023/09/29 00:17:38;;;;;;;13.02;3.80;;;;;;;22.54;50.37;100917.13;5036559;28;20500;-54
2023/09/29 00:22:43;;;;;;;12.57;3.63;;;;;;;22.53;49.29;100931.88;5036231;28;20035;-54
2023/09/29 00:25:09;;;;;;;10.73;3.67;;;;;;;22.56;48.65;100921.22;5036157;28;20439;-56
2023/09/29 00:27:36;;;;;;;8.43;3.78;;;;;;;22.39;49.13;100916.16;5036269;28;20386;-55
2023/09/29 00:30:05;;;;;;;9.50;3.47;;;;;;;22.26;48.65;100919.50;5036168;28;20033;-53
2023/09/29 00:32:31;;;;;;;11.88;3.35;;;;;;;22.27;48.75;100923.06;5035911;28;20461;-52
2023/09/29 00:34:58;;;;;;;7.93;3.10;;;;;;;22.25;48.77;100920.59;5035924;28;20080;-51
2023/09/29 00:37:25;;;;;;;12.25;3.92;;;;;;;22.33;48.83;100917.31;5035668;28;20497;-46
2023/09/29 00:39:52;;;;;;;11.10;3.67;;;;;;;22.15;49.05;100917.94;5035907;28;20040;-45
2023/09/29 00:42:19;;;;;;;7.28;3.10;;;;;;;22.14;49.70;100913.59;5035785;28;20147;-44
2023/09/29 00:44:45;;;;;;;11.52;3.45;;;;;;;22.32;49.57;100909.38;5035704;28;20023;-54
2023/09/29 00:47:11;;;;;;;9.63;3.85;;;;;;;22.26;50.06;100915.97;5035752;28;20042;-55
2023/09/29 00:49:38;;;;;;;14.50;4.03;;;;;;;22.29;50.14;100913.50;5035663;28;20025;-55
2023/09/29 00:52:04;;;;;;;9.07;3.78;;;;;;;22.39;49.52;100916.16;5034799;28;20034;-50
2023/09/29 00:54:35;;;;;;;9.52;3.65;;;;;;;22.40;49.05;100908.78;5035614;28;20055;-48
2023/09/29 00:57:05;;;;;;;9.77;3.28;;;;;;;22.59;48.64;100909.72;5035565;28;20116;-51
2023/09/29 00:59:34;;;;;;;8.10;3.53;;;;;;;22.63;49.18;100915.44;5035599;28;20365;-55
2023/09/29 01:02:03;;;;;;;9.43;3.90;;;;;;;22.51;49.89;100910.34;5035565;28;20025;-53
2023/09/29 01:04:31;;;;;;;11.82;4.40;;;;;;;22.41;51.23;100913.16;5035274;28;20052;-53
2023/09/29 01:06:58;;;;;;;14.02;4.05;;;;;;;22.29;52.33;100910.78;5035332;28;20022;-51
2023/09/29 01:09:24;;;;;;;16.08;5.57;;;;;;;22.22;53.26;100913.00;5035412;28;20477;-55
2023/09/29 01:11:52;;;;;;;11.05;4.15;;;;;;;22.10;54.25;100907.09;5034892;28;20029;-44
2023/09/29 01:14:18;;;;;;;16.90;4.78;;;;;;;22.00;54.90;100916.09;5034916;28;20432;-44
2023/09/29 01:16:45;;;;;;;12.63;4.20;;;;;;;21.92;55.63;100913.94;5034178;28;20028;-44
2023/09/29 01:19:12;;;;;;;12.68;4.70;;;;;;;21.63;56.00;100916.50;5035127;28;20033;-45
2023/09/29 01:21:40;;;;;;;20.08;5.72;;;;;;;21.58;56.87;100917.34;5035113;28;20032;-44
2023/09/29 01:24:07;;;;;;;19.40;6.20;;;;;;;21.49;58.38;100916.31;5035091;28;20052;-44
2023/09/29 01:26:34;;;;;;;21.42;5.18;;;;;;;21.52;58.71;100914.91;5035000;28;20544;-44
2023/09/29 01:29:00;;;;;;;21.98;5.95;;;;;;;21.42;59.47;100913.03;5034817;28;20474;-44
2023/09/29 01:31:27;;;;;;;18.58;5.35;;;;;;;21.34;60.06;100916.34;5035372;28;20033;-44
2023/09/29 01:33:53;;;;;;;16.85;5.32;;;;;;;21.38;59.64;100916.59;5034658;28;20033;-45
2023/09/29 01:36:19;;;;;;;14.05;5.53;;;;;;;21.33;60.28;100922.88;5035205;28;20025;-45
2023/09/29 01:38:45;;;;;;;21.38;5.47;;;;;;;21.13;61.08;100917.44;5034653;28;20050;-45
2023/09/29 01:41:16;;;;;;;21.52;6.18;;;;;;;21.12;61.28;100919.34;5035146;28;20033;-43
2023/09/29 01:43:42;;;;;;;14.77;5.95;;;;;;;21.00;61.82;100916.91;5034606;28;20120;-46
2023/09/29 01:46:09;;;;;;;21.40;6.72;;;;;;;20.94;62.82;100917.19;5034507;28;20071;-43
2023/09/29 01:48:35;;;;;;;23.65;6.55;;;;;;;20.82;62.35;100912.00;5034930;28;20438;-45
2023/09/29 01:51:02;;;;;;;21.25;6.45;;;;;;;20.67;62.41;100915.56;5034703;28;20068;-46
2023/09/29 01:53:30;;;;;;;17.55;6.05;;;;;;;20.42;63.10;100907.31;5034509;28;20021;-44
2023/09/29 01:55:57;;;;;;;14.13;5.10;;;;;;;20.56;62.57;100909.28;5034653;28;20026;-49
2023/09/29 01:58:24;;;;;;;20.45;6.47;;;;;;;20.62;62.61;100904.66;5034492;28;20021;-44
2023/09/29 02:00:50;;;;;;;23.67;6.65;;;;;;;20.49;63.54;100902.50;5034396;28;20022;-45
2023/09/29 02:03:16;;;;;;;18.50;5.68;;;;;;;20.57;63.05;100899.22;5034305;28;20023;-46
2023/09/29 02:05:43;;;;;;;16.63;6.30;;;;;;;20.44;62.77;100906.00;5034458;28;20021;-47
2023/09/29 02:08:10;;;;;;;24.75;5.85;;;;;;;20.33;63.14;100912.50;5034146;28;20030;-47
2023/09/29 02:10:37;;;;;;;16.02;5.47;;;;;;;20.36;64.09;100913.84;5034224;28;20025;-50
2023/09/29 02:13:04;;;;;;;18.65;5.88;;;;;;;20.02;65.73;100906.16;5034530;28;20022;-46
2023/09/29 02:15:34;;;;;;;18.73;5.85;;;;;;;20.41;65.24;100913.84;5034440;28;20458;-48
2023/09/29 02:18:01;;;;;;;20.42;6.18;;;;;;;20.39;65.08;100903.25;5034457;28;20398;-47
2023/09/29 02:20:31;;;;;;;15.55;5.18;;;;;;;20.23;65.81;100910.56;5033990;28;20018;-47
2023/09/29 02:23:02;;;;;;;15.93;5.80;;;;;;;20.15;65.28;100921.13;5034117;28;20037;-47
2023/09/29 02:25:29;;;;;;;17.52;5.65;;;;;;;20.17;65.49;100913.53;5016103;28;20327;-45
2023/09/29 02:27:57;;;;;;;19.23;6.25;;;;;;;20.18;65.26;100910.56;5033570;28;20083;-49
2023/09/29 02:30:27;;;;;;;17.85;6.07;;;;;;;19.92;66.53;100923.22;5033682;28;20109;-47
2023/09/29 02:32:54;;;;;;;16.50;6.05;;;;;;;19.88;66.96;100926.78;5033751;28;20056;-45
2023/09/29 02:35:21;;;;;;;17.42;6.25;;;;;;;19.97;66.83;100925.16;5033586;28;20018;-44
2023/09/29 02:37:48;;;;;;;27.38;6.88;;;;;;;20.04;67.26;100923.00;5033385;28;20048;-47
2023/09/29 02:40:18;;;;;;;17.23;6.25;;;;;;;19.89;68.43;100929.22;5033591;28;20037;-45
2023/09/29 02:42:44;;;;;;;22.88;6.00;;;;;;;19.78;68.73;100922.09;5033566;28;20077;-45
2023/09/29 02:45:10;;;;;;;21.75;6.75;;;;;;;19.70;69.24;100923.41;5033479;28;20029;-44
2023/09/29 02:47:41;;;;;;;21.85;7.03;;;;;;;19.60;70.04;100933.41;5033323;28;20025;-43
2023/09/29 02:50:12;;;;;;;23.40;6.38;;;;;;;19.59;70.60;100929.06;5033523;28;20032;-45
2023/09/29 02:52:40;;;;;;;22.77;7.22;;;;;;;19.53;71.03;100922.75;5033397;28;20021;-44
2023/09/29 02:55:12;;;;;;;24.08;7.30;;;;;;;19.44;71.64;100922.44;5033292;28;20071;-45
2023/09/29 02:57:38;;;;;;;16.67;5.72;;;;;;;19.37;72.71;100921.03;5033471;28;20439;-44
2023/09/29 03:00:06;;;;;;;25.17;7.22;;;;;;;19.26;73.11;100923.69;5033302;28;20036;-46
2023/09/29 03:02:33;;;;;;;25.20;8.40;;;;;;;19.13;73.75;100932.28;5033343;28;20025;-44
2023/09/29 03:04:59;;;;;;;22.33;7.00;;;;;;;19.17;73.20;100933.41;5033217;28;20029;-44
2023/09/29 03:07:25;;;;;;;26.02;7.32;;;;;;;19.05;74.43;100927.34;5033486;28;20032;-46
2023/09/29 03:09:54;;;;;;;21.67;7.63;;;;;;;18.98;74.57;100924.03;5033593;28;20025;-45
2023/09/29 03:12:21;;;;;;;23.08;6.25;;;;;;;19.03;74.72;100928.69;5033288;28;20030;-44
2023/09/29 03:14:48;;;;;;;26.15;6.88;;;;;;;18.98;74.53;100919.41;5033286;28;20033;-45
2023/09/29 03:17:15;;;;;;;23.73;7.28;;;;;;;18.91;74.74;100923.44;5032979;28;20030;-47
2023/09/29 03:19:42;;;;;;;20.92;6.93;;;;;;;18.82;75.05;100920.41;5032925;28;20014;-44
2023/09/29 03:22:11;;;;;;;19.10;6.13;;;;;;;18.73;75.08;100928.19;5033242;28;20120;-44
2023/09/29 03:24:37;;;;;;;17.75;6.20;;;;;;;18.83;74.31;100922.03;5033280;28;20386;-45
2023/09/29 03:27:03;;;;;;;17.65;6.18;;;;;;;18.73;74.13;100928.19;5033602;28;20104;-49
2023/09/29 03:29:30;;;;;;;18.40;6.55;;;;;;;18.83;73.94;100926.63;5033066;28;20026;-48
2023/09/29 03:31:56;;;;;;;24.50;6.75;;;;;;;18.75;73.94;100924.38;5032923;28;20031;-46
2023/09/29 03:34:23;;;;;;;18.95;7.22;;;;;;;18.71;74.64;100918.66;5032859;28;20038;-45
2023/09/29 03:36:53;;;;;;;22.65;6.85;;;;;;;18.93;73.71;100913.13;5032578;28;20048;-46
2023/09/29 03:39:19;;;;;;;18.90;6.72;;;;;;;18.72;74.23;100920.31;5032182;28;20029;-47
2023/09/29 03:41:46;;;;;;;20.55;6.95;;;;;;;18.67;74.44;100912.94;5032641;28;20092;-46
2023/09/29 03:44:12;;;;;;;20.73;7.03;;;;;;;18.70;73.70;100915.13;5032561;28;20033;-46
2023/09/29 03:46:39;;;;;;;17.10;6.72;;;;;;;18.85;73.54;100919.06;5033033;28;20026;-47
2023/09/29 03:49:05;;;;;;;17.83;6.18;;;;;;;18.83;73.42;100919.31;5032597;28;20124;-45
2023/09/29 03:51:33;;;;;;;19.15;7.32;;;;;;;18.80;74.07;100921.72;5032601;28;20044;-45
2023/09/29 03:54:00;;;;;;;17.73;6.25;;;;;;;18.76;74.02;100920.59;5032535;28;20048;-44
2023/09/29 03:56:26;;;;;;;12.43;5.57;;;;;;;18.74;74.00;100920.84;5032446;28;20101;-48
2023/09/29 03:58:53;;;;;;;18.70;5.55;;;;;;;18.78;74.10;100932.03;5032567;28;20032;-45
2023/09/29 04:01:21;;;;;;;26.38;5.80;;;;;;;18.70;74.41;100922.44;5032509;28;20022;-46
2023/09/29 04:03:47;;;;;;;21.17;7.18;;;;;;;18.59;74.86;100916.06;5032421;28;20026;-45
2023/09/29 04:06:14;;;;;;;20.58;5.95;;;;;;;18.62;74.57;100915.56;5032304;28;20029;-45
2023/09/29 04:08:41;;;;;;;19.55;6.38;;;;;;;18.67;74.78;100917.53;5032441;28;20496;-45
2023/09/29 04:11:07;;;;;;;19.30;5.88;;;;;;;18.61;74.81;100924.78;5032306;28;20108;-45
2023/09/29 04:13:33;;;;;;;17.10;6.22;;;;;;;18.63;74.75;100925.34;5032342;28;20030;-44
2023/09/29 04:16:07;;;;;;;12.90;5.63;;;;;;;18.58;74.77;100921.75;5032258;28;20462;-44
2023/09/29 04:18:34;;;;;;;16.67;5.43;;;;;;;18.65;74.64;100919.66;5032268;28;20437;-46
2023/09/29 04:21:10;;;;;;;15.38;5.68;;;;;;;18.51;75.33;100927.41;5032625;28;20037;-44
2023/09/29 04:23:36;;;;;;;18.77;6.53;;;;;;;18.69;74.77;100927.03;5032259;28;20026;-45
2023/09/29 04:26:02;;;;;;;20.67;6.22;;;;;;;18.43;75.62;100923.28;5032262;28;20033;-43
2023/09/29 04:28:29;;;;;;;17.23;6.15;;;;;;;18.31;76.32;100919.88;5032181;28;20034;-44
2023/09/29 04:30:55;;;;;;;19.80;6.65;;;;;;;18.32;76.13;100920.69;5032329;28;20041;-44
2023/09/29 04:33:21;;;;;;;18.15;5.68;;;;;;;18.41;76.06;100924.59;5032364;28;20053;-45
2023/09/29 04:35:47;;;;;;;15.80;6.07;;;;;;;18.34;75.89;100918.56;5032472;28;20547;-46
2023/09/29 04:38:13;;;;;;;20.58;5.80;;;;;;;18.47;75.12;100915.44;5031860;28;20497;-46
2023/09/29 04:40:40;;;;;;;15.43;5.30;;;;;;;18.40;74.95;100917.53;5032216;28;20496;-45
2023/09/29 04:43:06;;;;;;;13.57;5.45;;;;;;;18.32;75.20;100921.53;5032150;28;20029;-46
2023/09/29 04:45:36;;;;;;;15.23;5.45;;;;;;;18.22;75.35;100917.91;5031884;28;20072;-46
2023/09/29 04:48:03;;;;;;;17.40;5.50;;;;;;;18.16;75.22;100925.16;5031996;28;20044;-46
2023/09/29 04:50:29;;;;;;;12.18;4.65;;;;;;;18.09;75.59;100925.31;5032069;28;20063;-44
2023/09/29 04:52:56;;;;;;;13.25;5.35;;;;;;;18.08;75.80;100922.88;5034833;28;20022;-44
2023/09/29 04:55:22;;;;;;;15.23;5.85;;;;;;;18.00;75.81;100926.88;5036005;28;20057;-44
2023/09/29 04:57:52;;;;;;;7.72;4.47;;;;;;;17.99;75.91;100929.81;5035616;28;20034;-45
2023/09/29 05:00:18;;;;;;;17.42;5.22;;;;;;;17.91;75.73;100931.91;5035463;28;20076;-45
2023/09/29 05:02:44;;;;;;;14.43;4.85;;;;;;;17.91;74.83;100931.06;5035490;28;20032;-43
2023/09/29 05:05:11;;;;;;;13.38;4.70;;;;;;;17.80;74.19;100932.03;5035371;28;20022;-45
2023/09/29 05:07:37;;;;;;;10.80;4.38;;;;;;;17.77;74.49;100936.06;5035360;28;20116;-48
2023/09/29 05:10:04;;;;;;;12.48;5.10;;;;;;;17.72;74.89;100929.75;5035302;28;20022;-44
2023/09/29 05:12:30;;;;;;;16.90;5.78;;;;;;;17.66;74.82;100928.84;5035330;28;20035;-45
2023/09/29 05:14:57;;;;;;;19.30;6.25;;;;;;;17.64;74.93;100936.38;5035453;28;20474;-45
2023/09/29 05:17:23;;;;;;;12.25;5.68;;;;;;;17.53;76.06;100935.44;5035486;28;20482;-45
2023/09/29 05:19:49;;;;;;;17.13;5.35;;;;;;;17.60;76.56;100933.38;5035539;28;20382;-45
2023/09/29 05:22:16;;;;;;;17.95;6.50;;;;;;;17.54;78.56;100928.13;5035200;28;20017;-45
2023/09/29 05:24:42;;;;;;;15.52;5.82;;;;;;;17.57;78.68;100925.75;5035460;28;20561;-44
2023/09/29 05:27:08;;;;;;;21.88;6.35;;;;;;;17.66;79.00;100929.66;5035205;28;20033;-45
2023/09/29 05:29:35;;;;;;;14.10;6.32;;;;;;;17.61;79.38;100931.50;5035269;28;20029;-43
2023/09/29 05:32:01;;;;;;;17.17;6.57;;;;;;;17.74;79.75;100925.72;5034928;28;20494;-44
2023/09/29 05:34:28;;;;;;;15.13;5.60;;;;;;;17.71;80.08;100942.44;5034852;28;20057;-45
2023/09/29 05:36:54;;;;;;;20.77;7.38;;;;;;;17.72;80.68;100937.84;5034964;28;20484;-44
2023/09/29 05:39:20;;;;;;;19.63;6.93;;;;;;;17.69;80.59;100939.97;5035368;28;20032;-43
2023/09/29 05:41:46;;;;;;;16.75;5.88;;;;;;;17.56;81.27;100937.66;5035157;28;20057;-43
2023/09/29 05:44:13;;;;;;;16.23;5.20;;;;;;;17.49;81.26;100938.88;5034861;28;20025;-44
2023/09/29 05:46:39;;;;;;;17.77;6.20;;;;;;;17.48;80.10;100937.25;5034916;28;20021;-44
2023/09/29 05:49:05;;;;;;;19.63;6.40;;;;;;;17.67;79.40;100939.41;5034933;28;20033;-43
2023/09/29 05:51:32;;;;;;;20.58;6.85;;;;;;;17.47;79.81;100941.03;5034768;28;20044;-43
2023/09/29 05:53:58;;;;;;;17.67;6.63;;;;;;;17.41;79.79;100934.72;5034381;28;20029;-44
2023/09/29 05:56:26;;;;;;;19.25;6.20;;;;;;;17.52;79.36;100939.22;5035054;28;20052;-46
2023/09/29 05:58:53;;;;;;;14.38;6.13;;;;;;;17.42;79.47;100939.06;5035180;28;20026;-44
2023/09/29 06:01:19;;;;;;;17.85;6.47;;;;;;;17.41;79.03;100938.25;5034062;28;20075;-44
2023/09/29 06:03:46;;;;;;;19.73;6.82;;;;;;;17.31;79.30;100943.50;5034072;28;20466;-44
2023/09/29 06:06:12;;;;;;;14.63;5.75;;;;;;;17.12;79.85;100942.13;5034183;28;20025;-44
2023/09/29 06:08:38;;;;;;;21.05;6.10;;;;;;;17.09;79.58;100929.91;5034110;28;20030;-45
2023/09/29 06:11:05;;;;;;;20.30;6.88;;;;;;;17.22;79.24;100931.47;5034181;28;20030;-44
2023/09/29 06:13:32;;;;;;;21.65;7.10;;;;;;;17.26;79.00;100929.06;5034489;28;20035;-45
2023/09/29 06:15:58;;;;;;;24.80;7.35;;;;;;;17.22;78.83;100936.06;5034072;28;20026;-44
2023/09/29 06:18:26;;;;;;;22.85;7.07;;;;;;;17.22;79.20;100933.38;5034117;28;20076;-44
2023/09/29 06:20:52;;;;;;;21.02;7.90;;;;;;;17.14;79.39;100929.19;5033734;28;20029;-44
2023/09/29 06:23:18;;;;;;;23.08;7.43;;;;;;;17.12;79.20;100928.63;5034218;28;20124;-44
2023/09/29 06:25:44;;;;;;;20.35;6.38;;;;;;;17.15;79.77;100926.22;5034241;28;20025;-45
2023/09/29 06:28:11;;;;;;;17.45;6.78;;;;;;;17.13;80.17;100927.53;5033572;28;20428;-44
2023/09/29 06:30:37;;;;;;;21.88;7.15;;;;;;;17.21;80.39;100934.41;5033853;28;20379;-44
2023/09/29 06:33:04;;;;;;;17.90;6.22;;;;;;;17.10;80.74;100923.47;5033485;28;20465;-44
2023/09/29 06:35:30;;;;;;;20.23;6.20;;;;;;;17.03;81.78;100925.50;5033786;28;20036;-44
2023/09/29 06:37:57;;;;;;;21.33;7.80;;;;;;;17.01;81.92;100930.34;5033586;28;20063;-44
2023/09/29 06:40:23;;;;;;;26.98;7.82;;;;;;;16.98;82.41;100935.41;5033349;28;20018;-43
2023/09/29 06:42:49;;;;;;;23.08;7.60;;;;;;;16.82;83.15;100929.78;5033779;28;20316;-45
2023/09/29 06:45:15;;;;;;;16.73;5.97;;;;;;;16.86;82.86;100920.09;5033991;28;20052;-43
2023/09/29 06:47:42;;;;;;;20.90;6.72;;;;;;;16.87;83.22;100921.72;5033721;28;20030;-43
2023/09/29 06:50:11;;;;;;;21.42;6.65;;;;;;;16.80;83.65;100917.56;5033634;28;20382;-43
2023/09/29 06:52:39;;;;;;;18.88;6.72;;;;;;;16.84;83.34;100916.00;5033516;28;20022;-43
2023/09/29 06:55:06;;;;;;;15.82;6.68;;;;;;;16.89;83.25;100916.09;5033593;28;20025;-44
2023/09/29 06:57:33;;;;;;;19.15;6.82;;;;;;;16.80;83.44;100912.16;5033400;28;20398;-44
2023/09/29 07:00:00;;;;;;;17.98;6.50;;;;;;;16.80;83.25;100912.97;5033889;28;20022;-43
2023/09/29 07:02:26;;;;;;;27.25;7.18;;;;;;;16.78;83.37;100914.28;5033732;28;20029;-43
2023/09/29 07:04:52;;;;;;;14.63;6.28;;;;;;;16.89;82.95;100916.09;5033691;28;20033;-43
2023/09/29 07:07:19;;;;;;;17.23;6.05;;;;;;;16.83;83.02;100911.66;5033321;28;20033;-43
2023/09/29 07:09:45;;;;;;;20.08;6.43;;;;;;;16.83;83.01;100914.38;5033385;28;20051;-44
2023/09/29 07:12:11;;;;;;;20.70;6.47;;;;;;;16.79;82.83;100919.44;5033214;28;20029;-44
2023/09/29 07:14:38;;;;;;;23.95;6.90;;;;;;;16.81;82.84;100911.91;5032476;28;20104;-43
2023/09/29 07:17:04;;;;;;;20.85;6.57;;;;;;;16.79;82.96;100908.63;5033085;28;20359;-44
2023/09/29 07:19:31;;;;;;;16.30;6.78;;;;;;;16.77;82.81;100912.66;5032974;28;20029;-44
2023/09/29 07:21:58;;;;;;;15.88;5.80;;;;;;;16.76;82.80;100909.09;5033083;28;20081;-45
2023/09/29 07:24:24;;;;;;;20.48;6.68;;;;;;;16.66;82.97;100913.47;5032904;28;20081;-44
2023/09/29 07:26:52;;;;;;;16.85;7.20;;;;;;;16.61;82.91;100909.66;5032835;28;20033;-44
2023/09/29 07:29:18;;;;;;;26.05;7.82;;;;;;;16.63;82.98;100920.22;5032671;28;20037;-44
2023/09/29 07:31:48;;;;;;;28.52;8.65;;;;;;;16.69;82.57;100918.41;5032800;28;20044;-44
2023/09/29 07:34:17;;;;;;;24.55;6.78;;;;;;;16.71;82.73;100913.59;5032694;28;20017;-43
2023/09/29 07:36:45;;;;;;;19.27;7.22;;;;;;;16.66;82.89;100914.34;5032965;28;20044;-47
2023/09/29 07:39:15;;;;;;;17.38;6.90;;;;;;;16.47;83.38;100919.13;5032639;28;20124;-43
2023/09/29 07:41:42;;;;;;;22.75;7.22;;;;;;;16.41;84.62;100917.41;5032632;28;20036;-43
2023/09/29 07:44:08;;;;;;;18.65;6.78;;;;;;;16.44;84.15;100922.31;5032687;28;20100;-44
2023/09/29 07:46:38;;;;;;;21.38;6.55;;;;;;;16.62;83.15;100922.09;5032716;28;20025;-43
2023/09/29 07:49:05;;;;;;;16.02;6.18;;;;;;;16.55;83.18;100910.63;5032592;28;20040;-43
2023/09/29 07:51:32;;;;;;;18.90;5.90;;;;;;;16.51;83.64;100906.78;5032675;28;20021;-43
2023/09/29 07:53:59;;;;;;;17.08;7.00;;;;;;;16.59;83.06;100911.75;5032580;28;20029;-43
2023/09/29 07:56:25;;;;;;;21.10;7.00;;;;;;;16.50;83.43;100915.94;5033025;28;20548;-43
2023/09/29 07:58:53;;;;;;;17.83;6.60;;;;;;;16.58;83.20;100920.94;5032514;28;20033;-44
2023/09/29 08:01:19;;;;;;;21.25;6.95;;;;;;;16.56;83.27;100914.97;5032432;28;20056;-43
2023/09/29 08:03:45;;;;;;;22.35;6.25;;;;;;;16.46;83.39;100916.66;5032547;28;20036;-43
2023/09/29 08:06:13;;;;;;;20.90;6.72;;;;;;;16.44;83.73;100916.09;5032433;28;20041;-43
2023/09/29 08:08:40;;;;;;;18.30;6.60;;;;;;;16.39;84.10;100914.13;5032662;28;20429;-43
2023/09/29 08:11:06;;;;;;;20.88;7.18;;;;;;;16.24;84.90;100913.84;5032517;28;20021;-43
2023/09/29 08:13:32;;;;;;;28.70;6.90;;;;;;;16.22;85.50;100914.09;5032376;28;20053;-43
2023/09/29 08:15:58;;;;;;;18.92;6.68;;;;;;;16.16;85.68;100909.66;5032810;28;20021;-43
2023/09/29 08:18:25;;;;;;;20.00;6.70;;;;;;;16.35;84.84;100918.38;5032490;28;20026;-47
2023/09/29 08:20:54;;;;;;;29.27;7.70;;;;;;;16.20;85.19;100912.69;5032355;28;20508;-46
2023/09/29 08:23:20;;;;;;;21.13;6.05;;;;;;;16.31;85.00;100914.50;5032464;28;20048;-46
2023/09/29 08:25:47;;;;;;;25.00;7.10;;;;;;;16.17;85.49;100914.00;5033658;28;20024;-46
2023/09/29 08:28:13;;;;;;;17.80;6.10;;;;;;;16.07;85.89;100914.59;5036301;28;20470;-44
2023/09/29 08:30:43;;;;;;;19.35;6.72;;;;;;;16.06;86.00;100912.97;5036873;28;20029;-44
2023/09/29 08:33:09;;;;;;;17.23;6.72;;;;;;;16.15;85.57;100902.59;5036037;28;20460;-45
2023/09/29 08:35:35;;;;;;;18.98;6.45;;;;;;;16.14;85.35;100910.94;5035918;28;20025;-44
2023/09/29 08:38:02;;;;;;;15.68;6.22;;;;;;;16.08;85.27;100907.31;5035850;28;20047;-42
2023/09/29 08:40:34;;;;;;;15.93;6.10;;;;;;;16.07;85.31;100903.81;5035986;28;20381;-42
2023/09/29 08:43:01;;;;;;;18.55;6.70;;;;;;;15.98;85.76;100912.53;5035954;28;20084;-42
2023/09/29 08:45:29;;;;;;;18.08;5.70;;;;;;;15.93;85.88;100910.53;5036169;28;20022;-42
2023/09/29 08:47:59;;;;;;;22.20;7.00;;;;;;;15.96;85.99;100911.94;5035544;28;20057;-44
2023/09/29 08:50:26;;;;;;;22.95;6.60;;;;;;;16.02;85.58;100911.81;5035729;28;20492;-43
2023/09/29 08:52:53;;;;;;;23.40;6.13;;;;;;;16.01;85.47;100918.28;5035911;28;20488;-42
2023/09/29 08:55:20;;;;;;;19.00;6.68;;;;;;;15.89;85.76;100917.50;5035641;28;20072;-42
2023/09/29 08:57:47;;;;;;;19.08;6.18;;;;;;;15.96;85.55;100912.78;5035847;28;20030;-42
2023/09/29 09:00:13;;;;;;;16.23;6.63;;;;;;;15.92;86.12;100908.09;5035461;28;20473;-43
2023/09/29 09:02:44;;;;;;;18.80;6.43;;;;;;;15.92;86.23;100914.28;5035580;28;20044;-43
2023/09/29 09:05:12;;;;;;;20.63;6.47;;;;;;;15.89;86.45;100912.09;5036148;28;20060;-43
2023/09/29 09:07:43;;;;;;;17.75;6.97;;;;;;;15.88;86.21;100901.50;5035595;28;20043;-46
2023/09/29 09:10:11;;;;;;;17.70;6.43;;;;;;;16.10;85.73;100900.63;5035392;28;20029;-43
2023/09/29 09:12:40;;;;;;;21.67;6.78;;;;;;;15.95;86.50;100900.34;5035233;28;20057;-42
2023/09/29 09:15:08;;;;;;;20.83;6.28;;;;;;;15.93;87.15;100899.72;5035509;28;20079;-44
2023/09/29 09:17:35;;;;;;;19.33;6.60;;;;;;;15.88;87.29;100896.13;5035130;28;20041;-43
2023/09/29 09:20:02;;;;;;;21.08;6.45;;;;;;;15.95;86.43;100894.94;5035260;28;20025;-44
2023/09/29 09:22:32;;;;;;;25.30;6.75;;;;;;;16.00;86.53;100886.13;5035125;28;20017;-44
2023/09/29 09:25:08;;;;;;;31.70;7.07;;;;;;;16.00;87.22;100889.63;5035106;28;20045;-43
2023/09/29 09:27:43;;;;;;;20.73;5.82;;;;;;;15.77;87.73;100884.31;5034939;28;20032;-42
2023/09/29 09:30:21;;;;;;;23.98;6.65;;;;;;;15.90;87.52;100884.03;5035021;28;20025;-43
2023/09/29 09:32:48;;;;;;;22.60;7.13;;;;;;;15.78;87.12;100875.16;5034922;28;20021;-43
2023/09/29 09:35:37;;;;;;;22.85;6.65;;;;;;;15.74;87.59;100879.38;5034870;28;20021;-44
2023/09/29 09:38:04;;;;;;;20.58;5.35;;;;;;;15.74;87.69;100890.19;5033919;28;20128;-42
2023/09/29 09:40:32;;;;;;;20.67;6.65;;;;;;;15.79;87.41;100879.50;5034698;28;20036;-46
2023/09/29 09:43:03;;;;;;;17.05;6.55;;;;;;;15.73;87.79;100877.75;5034803;28;20028;-44
2023/09/29 09:45:50;;;;;;;19.42;5.85;;;;;;;15.77;87.72;100881.63;5034784;28;20448;-45
2023/09/29 09:48:20;;;;;;;21.60;6.43;;;;;;;15.70;88.03;100880.91;5034593;28;20029;-43
2023/09/29 09:50:49;;;;;;;21.67;6.30;;;;;;;15.71;88.07;100885.25;5034578;28;20402;-43
2023/09/29 09:53:22;;;;;;;25.38;7.60;;;;;;;15.66;87.87;100872.50;5034878;28;20048;-45
2023/09/29 09:55:56;;;;;;;21.00;7.35;;;;;;;15.80;87.21;100878.44;5034487;28;20070;-44
2023/09/29 09:58:23;;;;;;;26.60;7.47;;;;;;;15.81;87.07;100870.09;5034972;28;20053;-47
2023/09/29 10:00:52;;;;;;;20.58;6.07;;;;;;;15.85;86.84;100870.44;5034682;28;20437;-44
2023/09/29 10:03:21;;;;;;;17.58;6.18;;;;;;;15.73;86.96;100869.66;5034257;28;20029;-45
2023/09/29 10:05:52;;;;;;;23.83;6.57;;;;;;;15.75;87.42;100859.44;5034360;28;20021;-43
2023/09/29 10:08:29;;;;;;;18.05;6.65;;;;;;;15.65;88.12;100867.31;5034203;28;20060;-42
2023/09/29 10:11:11;;;;;;;20.52;5.93;;;;;;;15.59;88.35;100872.56;5034382;28;20064;-42
2023/09/29 10:13:39;;;;;;;21.65;6.65;;;;;;;15.56;88.16;100870.38;5034619;28;20371;-42
2023/09/29 10:16:06;;;;;;;20.48;6.68;;;;;;;15.58;88.74;100868.25;5034235;28;20155;-44
2023/09/29 10:18:33;;;;;;;24.73;7.32;;;;;;;15.66;88.79;100866.28;5034092;28;20030;-42
2023/09/29 10:21:12;;;;;;;18.23;6.88;;;;;;;15.56;88.68;100866.84;5033991;28;20032;-44
2023/09/29 10:23:46;;;;;;;23.13;7.32;;;;;;;15.59;88.89;100872.56;5033991;28;20470;-43
2023/09/29 10:26:13;;;;;;;25.67;7.72;;;;;;;15.45;89.60;100865.81;5033898;28;20090;-43
2023/09/29 10:28:40;;;;;;;24.50;6.95;;;;;;;15.58;89.70;100862.84;5033830;28;20040;-43
2023/09/29 10:31:17;;;;;;;22.83;7.35;;;;;;;15.48;90.02;100859.13;5033903;28;20029;-43
2023/09/29 10:33:52;;;;;;;27.85;6.70;;;;;;;15.55;89.55;100854.44;5033819;28;20037;-45
2023/09/29 10:36:29;;;;;;;25.60;7.43;;;;;;;15.44;90.68;100853.41;5033709;28;20525;-44
2023/09/29 10:38:57;;;;;;;19.52;6.45;;;;;;;15.50;90.17;100852.44;5033604;28;20414;-46
2023/09/29 10:41:32;;;;;;;19.98;6.55;;;;;;;15.56;89.89;100847.97;5033653;28;20041;-43
2023/09/29 10:44:03;;;;;;;22.70;6.82;;;;;;;15.53;89.32;100840.34;5034122;28;20029;-42
2023/09/29 10:46:30;;;;;;;20.95;7.00;;;;;;;15.42;89.94;100835.78;5033766;28;20030;-43
2023/09/29 10:48:56;;;;;;;21.90;6.10;;;;;;;15.58;89.54;100835.88;5033441;28;20061;-42
2023/09/29 10:51:24;;;;;;;21.17;6.25;;;;;;;15.51;89.26;100837.91;5033509;28;20029;-42
2023/09/29 10:53:52;;;;;;;19.83;7.00;;;;;;;15.45;89.51;100830.75;5033440;28;20458;-42
2023/09/29 10:56:24;;;;;;;26.15;7.25;;;;;;;15.47;88.70;100834.03;5033514;28;20032;-42
2023/09/29 10:58:54;;;;;;;25.02;6.40;;;;;;;15.57;88.34;100831.53;5033436;28;20113;-43
2023/09/29 11:01:32;;;;;;;15.27;5.93;;;;;;;15.50;88.06;100840.84;5033296;28;20021;-43
2023/09/29 11:04:05;;;;;;;16.33;6.13;;;;;;;15.48;88.14;100841.06;5033284;28;20104;-43
2023/09/29 11:06:39;;;;;;;23.65;7.03;;;;;;;15.51;87.69;100843.28;5033270;28;20351;-42
2023/09/29 11:09:07;;;;;;;22.63;5.78;;;;;;;15.48;87.54;100841.06;5033187;28;20037;-42
2023/09/29 11:11:35;;;;;;;15.00;5.53;;;;;;;15.47;87.67;100838.59;5033379;28;20548;-42
2023/09/29 11:14:05;;;;;;;21.35;5.43;;;;;;;15.44;87.36;100841.78;5033056;28;20065;-42
2023/09/29 11:16:33;;;;;;;20.88;6.50;;;;;;;15.26;88.73;100835.47;5033105;28;20033;-43
2023/09/29 11:19:14;;;;;;;19.35;6.18;;;;;;;15.41;88.15;100837.69;5033034;28;20049;-42
2023/09/29 11:21:41;;;;;;;16.38;5.78;;;;;;;15.39;88.16;100833.59;5033208;28;20030;-42